^^
Station Historical Data
Daily Summary for June 26, 2017 Units:  English    Metric   Both
« Previous Day
Next Day »
Daily Weekly Monthly Yearly Custom
  High: Low: Average:
Temperature: 78.3 °F 57.9 °F 69.8 °F
Dew Point: 58.4 °F 50.2 °F 53.6 °F
Humidity: 86% 38% 58%
Wind Speed: 6.0mph 0.0mph 1.3mph
Wind Gust: 15.0mph - -
Wind- - SSW
Pressure: 30.04 in 29.97 in -
Precipitation: 0.00 in    
Historical Graphs
 
 
Tabular Data for June 26, 2017
Time Temperature Dew Point Pressure Wind Wind Speed Wind Gust Humidity Rainfall Rate (Hourly) Conditions
00:00 70.9 °F 54.4 °F 29.99 in WNW 3.0 mph 13.0 mph 56% 0.00 in RA
00:15 69.5 °F 53.1 °F 29.99 in North 5.0 mph 15.0 mph 56% 0.00 in CLR
00:30 68.6 °F 54.2 °F 29.99 in North 5.0 mph 12.0 mph 60% 0.00 in CLR
00:45 67.9 °F 54.4 °F 29.99 in NNE 1.0 mph 9.0 mph 62% 0.00 in CLR
01:00 67.1 °F 54.5 °F 29.99 in Calm   6.0 mph 64% 0.00 in CLR
02:15 64.1 °F 53.3 °F 29.98 in Calm   2.0 mph 68% 0.00 in CLR
02:30 64.1 °F 52.9 °F 29.98 in Calm   1.0 mph 67% 0.00 in CLR
02:45 63.4 °F 53.1 °F 29.98 in Calm   2.0 mph 69% 0.00 in CLR
03:00 62.2 °F 53.0 °F 29.98 in Calm   1.0 mph 72% 0.00 in CLR
03:15 61.6 °F 52.9 °F 29.99 in Calm   3.0 mph 73% 0.00 in CLR
03:30 63.3 °F 52.2 °F 29.99 in Calm   3.0 mph 67% 0.00 in CLR
03:45 63.6 °F 52.0 °F 29.99 in Calm   4.0 mph 66% 0.00 in CLR
04:00 63.6 °F 52.0 °F 30.00 in Calm   2.0 mph 66% 0.00 in CLR
04:15 62.4 °F 52.1 °F 30.00 in Calm   1.0 mph 69% 0.00 in CLR
04:45 61.5 °F 52.3 °F 30.00 in Calm   1.0 mph 72% 0.00 in CLR
05:00 60.6 °F 52.3 °F 30.00 in Calm   1.0 mph 74% 0.00 in CLR
05:15 59.4 °F 52.9 °F 30.00 in Calm     79% 0.00 in CLR
05:30 58.5 °F 52.7 °F 30.01 in Calm     81% 0.00 in CLR
05:45 58.2 °F 52.7 °F 30.01 in Calm     82% 0.00 in CLR
06:00 57.9 °F 52.8 °F 30.02 in Calm     83% 0.00 in CLR
06:15 58.3 °F 53.2 °F 30.02 in Calm     83% 0.00 in CLR
06:30 57.9 °F 53.7 °F 30.03 in Calm     86% 0.00 in CLR
06:45 58.3 °F 53.5 °F 30.03 in Calm   1.0 mph 84% 0.00 in CLR
07:00 59.9 °F 54.1 °F 30.03 in Calm   1.0 mph 81% 0.00 in CLR
07:15 61.7 °F 53.7 °F 30.03 in Calm   2.0 mph 75% 0.00 in CLR
07:30 62.5 °F 53.7 °F 30.03 in Calm   2.0 mph 73% 0.00 in CLR
07:45 64.1 °F 54.1 °F 30.03 in Calm   3.0 mph 70% 0.00 in CLR
08:00 65.6 °F 54.8 °F 30.03 in West 1.0 mph 5.0 mph 68% 0.00 in CLR
08:15 67.4 °F 54.8 °F 30.03 in South 2.0 mph 5.0 mph 64% 0.00 in CLR
08:30 67.7 °F 54.6 °F 30.04 in North 1.0 mph 5.0 mph 63% 0.00 in CLR
08:45 68.4 °F 55.3 °F 30.04 in Calm   4.0 mph 63% 0.00 in CLR
09:00 69.8 °F 55.7 °F 30.04 in Calm   4.0 mph 61% 0.00 in CLR
09:15 69.8 °F 54.8 °F 30.04 in WNW 1.0 mph 4.0 mph 59% 0.00 in CLR
09:30 70.8 °F 55.3 °F 30.04 in Calm   4.0 mph 58% 0.00 in CLR
09:45 70.9 °F 53.9 °F 30.04 in Calm   6.0 mph 55% 0.00 in CLR
10:00 72.0 °F 53.9 °F 30.04 in SW 1.0 mph 4.0 mph 53% 0.00 in CLR
10:15 72.4 °F 53.3 °F 30.04 in WSW 1.0 mph 7.0 mph 51% 0.00 in FEW
10:30 73.4 °F 53.6 °F 30.04 in Calm   5.0 mph 50% 0.00 in FEW
10:45 72.8 °F 53.1 °F 30.04 in West 1.0 mph 7.0 mph 50% 0.00 in FEW
11:00 73.7 °F 53.3 °F 30.04 in NW 2.0 mph 7.0 mph 49% 0.00 in FEW
11:15 74.0 °F 53.6 °F 30.03 in SW 2.0 mph 10.0 mph 49% 0.00 in FEW
11:30 74.8 °F 52.6 °F 30.03 in SSW 2.0 mph 10.0 mph 46% 0.00 in FEW
11:45 75.5 °F 51.4 °F 30.03 in South 2.0 mph 7.0 mph 43% 0.00 in FEW
12:00 75.9 °F 51.8 °F 30.03 in SSW 3.0 mph 8.0 mph 43% 0.00 in FEW
12:15 76.0 °F 53.2 °F 30.02 in South 3.0 mph 7.0 mph 45% 0.00 in SCT
12:30 76.3 °F 52.1 °F 30.02 in South 5.0 mph 7.0 mph 43% 0.00 in SCT
12:45 75.8 °F 51.7 °F 30.02 in West 3.0 mph 9.0 mph 43% 0.00 in SCT
13:00 76.5 °F 51.7 °F 30.01 in Calm   8.0 mph 42% 0.00 in SCT
13:15 76.1 °F 53.2 °F 30.01 in WSW 2.0 mph 6.0 mph 45% 0.00 in SCT
13:30 77.5 °F 51.9 °F 30.01 in West 1.0 mph 8.0 mph 41% 0.00 in SCT
13:45 76.6 °F 51.8 °F 30.00 in West 2.0 mph 10.0 mph 42% 0.00 in SCT
14:00 77.3 °F 53.7 °F 30.00 in WSW 1.0 mph 6.0 mph 44% 0.00 in SCT
14:15 76.7 °F 51.9 °F 30.00 in WSW 2.0 mph 7.0 mph 42% 0.00 in SCT
14:30 76.1 °F 53.2 °F 29.99 in WSW 2.0 mph 8.0 mph 45% 0.00 in SCT
14:45 76.7 °F 52.5 °F 29.99 in West 2.0 mph 9.0 mph 43% 0.00 in SCT
15:00 76.2 °F 53.3 °F 29.99 in WSW 3.0 mph 6.0 mph 45% 0.00 in SCT
15:15 76.2 °F 53.9 °F 29.99 in WSW 1.0 mph 6.0 mph 46% 0.00 in BKN
15:30 76.7 °F 52.5 °F 29.99 in WSW 2.0 mph 8.0 mph 43% 0.00 in BKN
15:45 76.3 °F 52.8 °F 29.99 in SW 3.0 mph 7.0 mph 44% 0.00 in BKN
16:00 75.9 °F 53.7 °F 29.99 in SW 2.0 mph 9.0 mph 46% 0.00 in BKN
16:15 77.3 °F 53.1 °F 29.98 in SW 2.0 mph 7.0 mph 43% 0.00 in SCT
16:30 76.6 °F 53.1 °F 29.98 in SW 2.0 mph 12.0 mph 44% 0.00 in SCT
16:45 75.8 °F 51.1 °F 29.98 in SW 5.0 mph 10.0 mph 42% 0.00 in SCT
17:00 76.6 °F 51.8 °F 29.98 in SSW 6.0 mph 12.0 mph 42% 0.00 in SCT
17:15 77.0 °F 50.8 °F 29.98 in SSW 5.0 mph 13.0 mph 40% 0.00 in SCT
17:30 77.6 °F 51.4 °F 29.97 in SSW 3.0 mph 12.0 mph 40% 0.00 in SCT
17:45 77.9 °F 50.2 °F 29.97 in SSW 5.0 mph 12.0 mph 38% 0.00 in SCT
18:00 78.3 °F 52.7 °F 29.97 in WSW 2.0 mph 12.0 mph 41% 0.00 in SCT
18:15 78.1 °F 51.1 °F 29.97 in SW 3.0 mph 13.0 mph 39% 0.00 in SCT
18:30 77.5 °F 50.6 °F 29.97 in South 2.0 mph 13.0 mph 39% 0.00 in SCT
18:45 77.5 °F 50.6 °F 29.97 in SW 5.0 mph 10.0 mph 39% 0.00 in SCT
19:00 77.2 °F 50.3 °F 29.97 in SSW 5.0 mph 10.0 mph 39% 0.00 in SCT
19:15 76.6 °F 50.5 °F 29.97 in WSW 3.0 mph 12.0 mph 40% 0.00 in FEW
19:45 76.3 °F 51.5 °F 29.97 in SW 1.0 mph 8.0 mph 42% 0.00 in FEW
20:00 74.9 °F 52.1 °F 29.98 in South 1.0 mph 9.0 mph 45% 0.00 in FEW
20:15 72.3 °F 54.2 °F 29.97 in Calm   4.0 mph 53% 0.00 in CLR
20:30 70.7 °F 54.7 °F 29.97 in Calm   2.0 mph 57% 0.00 in CLR
20:45 69.4 °F 55.4 °F 29.97 in Calm   2.0 mph 61% 0.00 in CLR
21:00 68.4 °F 56.2 °F 29.97 in Calm   1.0 mph 65% 0.00 in CLR
21:15 67.6 °F 56.7 °F 29.98 in SSE 1.0 mph 3.0 mph 68% 0.00 in CLR
21:30 67.2 °F 57.1 °F 29.98 in Calm   2.0 mph 70% 0.00 in CLR
21:45 66.9 °F 57.2 °F 29.98 in Calm   1.0 mph 71% 0.00 in CLR
22:00 66.6 °F 57.7 °F 29.98 in Calm   4.0 mph 73% 0.00 in CLR
22:15 66.0 °F 57.8 °F 29.98 in Calm   3.0 mph 75% 0.00 in CLR
22:30 65.3 °F 58.2 °F 29.99 in Calm     78% 0.00 in CLR
22:45 64.6 °F 58.3 °F 29.99 in Calm     80% 0.00 in CLR
23:00 64.3 °F 58.0 °F 29.99 in Calm   1.0 mph 80% 0.00 in CLR
23:15 64.0 °F 58.4 °F 29.99 in Calm     82% 0.00 in CLR
23:30 63.6 °F 58.3 °F 29.99 in Calm     83% 0.00 in CLR
23:45 64.0 °F 57.0 °F 29.99 in Calm   2.0 mph 78% 0.00 in CLR
TarryTown NY Weather
Compliments of Weather Underground - 1.5 mb